sensor_id;sensor_type;location;lat;lon;timestamp;temperature;humidity
7496;DHT22;3789;47.064;15.482;2023-07-22T00:01:12;15.60;99.90
7496;DHT22;3789;47.064;15.482;2023-07-22T00:03:47;15.60;99.90
7496;DHT22;3789;47.064;15.482;2023-07-22T00:06:27;15.60;99.90
7496;DHT22;3789;47.064;15.482;2023-07-22T00:08:59;15.80;99.90
7496;DHT22;3789;47.064;15.482;2023-07-22T00:11:27;15.90;99.90
7496;DHT22;3789;47.064;15.482;2023-07-22T00:13:59;16.00;99.90
7496;DHT22;3789;47.064;15.482;2023-07-22T00:16:28;15.90;99.90
7496;DHT22;3789;47.064;15.482;2023-07-22T00:19:07;15.90;99.90
7496;DHT22;3789;47.064;15.482;2023-07-22T00:21:40;15.90;99.90
7496;DHT22;3789;47.064;15.482;2023-07-22T00:24:18;15.80;99.90
7496;DHT22;3789;47.064;15.482;2023-07-22T00:26:52;15.80;99.90
7496;DHT22;3789;47.064;15.482;2023-07-22T00:29:30;16.00;99.90
7496;DHT22;3789;47.064;15.482;2023-07-22T00:32:11;16.00;99.90
7496;DHT22;3789;47.064;15.482;2023-07-22T00:34:40;16.00;99.90
7496;DHT22;3789;47.064;15.482;2023-07-22T00:37:10;16.00;99.90
7496;DHT22;3789;47.064;15.482;2023-07-22T00:39:39;16.10;99.90
7496;DHT22;3789;47.064;15.482;2023-07-22T00:42:08;16.10;99.90
7496;DHT22;3789;47.064;15.482;2023-07-22T00:44:45;15.90;99.90
7496;DHT22;3789;47.064;15.482;2023-07-22T00:47:14;15.70;99.90
7496;DHT22;3789;47.064;15.482;2023-07-22T00:49:49;15.50;99.90
7496;DHT22;3789;47.064;15.482;2023-07-22T00:52:18;15.40;99.90
7496;DHT22;3789;47.064;15.482;2023-07-22T00:54:51;15.40;99.90
7496;DHT22;3789;47.064;15.482;2023-07-22T00:57:22;15.30;99.90
7496;DHT22;3789;47.064;15.482;2023-07-22T00:59:51;15.20;99.90
7496;DHT22;3789;47.064;15.482;2023-07-22T01:02:28;15.20;99.90
7496;DHT22;3789;47.064;15.482;2023-07-22T01:05:02;15.30;99.90
7496;DHT22;3789;47.064;15.482;2023-07-22T01:07:41;15.50;99.90
7496;DHT22;3789;47.064;15.482;2023-07-22T01:10:13;15.50;99.90
7496;DHT22;3789;47.064;15.482;2023-07-22T01:12:45;15.60;99.90
7496;DHT22;3789;47.064;15.482;2023-07-22T01:15:17;15.50;99.90
7496;DHT22;3789;47.064;15.482;2023-07-22T01:17:47;15.40;99.90
7496;DHT22;3789;47.064;15.482;2023-07-22T01:20:18;15.20;99.90
7496;DHT22;3789;47.064;15.482;2023-07-22T01:22:56;15.30;99.90
7496;DHT22;3789;47.064;15.482;2023-07-22T01:25:25;15.20;99.90
7496;DHT22;3789;47.064;15.482;2023-07-22T01:27:57;15.10;99.90
7496;DHT22;3789;47.064;15.482;2023-07-22T01:30:25;15.10;99.90
7496;DHT22;3789;47.064;15.482;2023-07-22T01:32:55;15.20;99.90
7496;DHT22;3789;47.064;15.482;2023-07-22T01:35:26;15.40;99.90
7496;DHT22;3789;47.064;15.482;2023-07-22T01:37:54;15.40;99.90
7496;DHT22;3789;47.064;15.482;2023-07-22T01:40:25;15.40;99.90
7496;DHT22;3789;47.064;15.482;2023-07-22T01:42:52;15.30;99.90
7496;DHT22;3789;47.064;15.482;2023-07-22T01:45:21;15.30;99.90
7496;DHT22;3789;47.064;15.482;2023-07-22T01:47:48;15.10;99.90
7496;DHT22;3789;47.064;15.482;2023-07-22T01:50:20;15.10;99.90
7496;DHT22;3789;47.064;15.482;2023-07-22T01:52:49;15.10;99.90
7496;DHT22;3789;47.064;15.482;2023-07-22T01:55:28;15.10;99.90
7496;DHT22;3789;47.064;15.482;2023-07-22T01:57:58;15.10;99.90
7496;DHT22;3789;47.064;15.482;2023-07-22T02:00:25;15.10;99.90
7496;DHT22;3789;47.064;15.482;2023-07-22T02:02:58;15.20;99.90
7496;DHT22;3789;47.064;15.482;2023-07-22T02:05:28;15.10;99.90
7496;DHT22;3789;47.064;15.482;2023-07-22T02:08:00;15.10;99.90
7496;DHT22;3789;47.064;15.482;2023-07-22T02:10:40;15.00;99.90
7496;DHT22;3789;47.064;15.482;2023-07-22T02:13:08;15.10;99.90
7496;DHT22;3789;47.064;15.482;2023-07-22T02:15:37;15.10;99.90
7496;DHT22;3789;47.064;15.482;2023-07-22T02:18:08;15.10;99.90
7496;DHT22;3789;47.064;15.482;2023-07-22T02:20:35;15.20;99.90
7496;DHT22;3789;47.064;15.482;2023-07-22T02:23:04;15.20;99.90
7496;DHT22;3789;47.064;15.482;2023-07-22T02:25:36;15.20;99.90
7496;DHT22;3789;47.064;15.482;2023-07-22T02:28:09;15.20;99.90
7496;DHT22;3789;47.064;15.482;2023-07-22T02:30:39;15.20;99.90
7496;DHT22;3789;47.064;15.482;2023-07-22T02:33:10;15.30;99.90
7496;DHT22;3789;47.064;15.482;2023-07-22T02:35:43;15.00;99.90
7496;DHT22;3789;47.064;15.482;2023-07-22T02:38:12;15.00;99.90
7496;DHT22;3789;47.064;15.482;2023-07-22T02:40:43;14.80;99.90
7496;DHT22;3789;47.064;15.482;2023-07-22T02:43:20;14.70;99.90
7496;DHT22;3789;47.064;15.482;2023-07-22T02:45:49;14.70;99.90
7496;DHT22;3789;47.064;15.482;2023-07-22T02:48:21;14.70;99.90
7496;DHT22;3789;47.064;15.482;2023-07-22T02:50:49;14.80;99.90
7496;DHT22;3789;47.064;15.482;2023-07-22T02:53:28;14.80;99.90
7496;DHT22;3789;47.064;15.482;2023-07-22T02:55:56;15.00;99.90
7496;DHT22;3789;47.064;15.482;2023-07-22T03:01:46;14.90;99.90
7496;DHT22;3789;47.064;15.482;2023-07-22T03:04:16;15.00;99.90
7496;DHT22;3789;47.064;15.482;2023-07-22T03:06:54;15.10;99.90
7496;DHT22;3789;47.064;15.482;2023-07-22T03:09:34;15.10;99.90
7496;DHT22;3789;47.064;15.482;2023-07-22T03:12:12;15.00;99.90
7496;DHT22;3789;47.064;15.482;2023-07-22T03:14:40;14.90;99.90
7496;DHT22;3789;47.064;15.482;2023-07-22T03:17:11;14.80;99.90
7496;DHT22;3789;47.064;15.482;2023-07-22T03:19:43;14.80;99.90
7496;DHT22;3789;47.064;15.482;2023-07-22T03:22:18;14.80;99.90
7496;DHT22;3789;47.064;15.482;2023-07-22T03:24:52;15.10;99.90
7496;DHT22;3789;47.064;15.482;2023-07-22T03:27:20;15.10;99.90
7496;DHT22;3789;47.064;15.482;2023-07-22T03:29:52;15.00;99.90
7496;DHT22;3789;47.064;15.482;2023-07-22T03:32:19;15.00;99.90
7496;DHT22;3789;47.064;15.482;2023-07-22T03:34:49;14.90;99.90
7496;DHT22;3789;47.064;15.482;2023-07-22T03:37:25;14.90;99.90
7496;DHT22;3789;47.064;15.482;2023-07-22T03:39:55;14.80;99.90
7496;DHT22;3789;47.064;15.482;2023-07-22T03:42:34;14.90;99.90
7496;DHT22;3789;47.064;15.482;2023-07-22T03:45:07;14.90;99.90
7496;DHT22;3789;47.064;15.482;2023-07-22T03:47:43;14.80;99.90
7496;DHT22;3789;47.064;15.482;2023-07-22T03:50:15;14.80;99.90
7496;DHT22;3789;47.064;15.482;2023-07-22T03:52:47;14.90;99.90
7496;DHT22;3789;47.064;15.482;2023-07-22T03:55:17;15.00;99.90
7496;DHT22;3789;47.064;15.482;2023-07-22T03:57:47;14.90;99.90
7496;DHT22;3789;47.064;15.482;2023-07-22T04:00:27;14.90;99.90
7496;DHT22;3789;47.064;15.482;2023-07-22T04:03:05;15.00;99.90
7496;DHT22;3789;47.064;15.482;2023-07-22T04:05:37;14.90;99.90
7496;DHT22;3789;47.064;15.482;2023-07-22T04:08:06;14.90;99.90
7496;DHT22;3789;47.064;15.482;2023-07-22T04:10:38;14.90;99.90
7496;DHT22;3789;47.064;15.482;2023-07-22T04:13:11;15.00;99.90
7496;DHT22;3789;47.064;15.482;2023-07-22T04:15:45;15.40;99.90
7496;DHT22;3789;47.064;15.482;2023-07-22T04:18:21;15.60;99.90
7496;DHT22;3789;47.064;15.482;2023-07-22T04:21:06;15.70;99.90
7496;DHT22;3789;47.064;15.482;2023-07-22T04:23:42;15.90;99.90
7496;DHT22;3789;47.064;15.482;2023-07-22T04:26:12;15.90;99.90
7496;DHT22;3789;47.064;15.482;2023-07-22T04:28:49;15.70;99.90
7496;DHT22;3789;47.064;15.482;2023-07-22T04:31:43;15.50;99.90
7496;DHT22;3789;47.064;15.482;2023-07-22T04:34:14;15.50;99.90
7496;DHT22;3789;47.064;15.482;2023-07-22T04:36:49;15.70;99.90
7496;DHT22;3789;47.064;15.482;2023-07-22T04:39:17;15.60;99.90
7496;DHT22;3789;47.064;15.482;2023-07-22T04:41:45;15.60;99.90
7496;DHT22;3789;47.064;15.482;2023-07-22T04:44:18;15.70;99.90
7496;DHT22;3789;47.064;15.482;2023-07-22T04:46:53;16.00;99.90
7496;DHT22;3789;47.064;15.482;2023-07-22T04:49:23;16.20;99.90
7496;DHT22;3789;47.064;15.482;2023-07-22T04:51:51;16.50;99.90
7496;DHT22;3789;47.064;15.482;2023-07-22T04:54:29;16.90;99.90
7496;DHT22;3789;47.064;15.482;2023-07-22T04:57:08;17.10;99.90
7496;DHT22;3789;47.064;15.482;2023-07-22T04:59:36;17.40;99.90
7496;DHT22;3789;47.064;15.482;2023-07-22T05:02:07;17.60;99.90
7496;DHT22;3789;47.064;15.482;2023-07-22T05:04:37;17.40;99.90
7496;DHT22;3789;47.064;15.482;2023-07-22T05:07:06;17.40;99.90
7496;DHT22;3789;47.064;15.482;2023-07-22T05:09:44;17.70;99.90
7496;DHT22;3789;47.064;15.482;2023-07-22T05:12:15;17.90;99.90
7496;DHT22;3789;47.064;15.482;2023-07-22T05:14:49;17.70;99.90
7496;DHT22;3789;47.064;15.482;2023-07-22T05:17:22;17.50;99.90
7496;DHT22;3789;47.064;15.482;2023-07-22T05:19:53;17.50;99.90
7496;DHT22;3789;47.064;15.482;2023-07-22T05:22:23;17.50;99.90
7496;DHT22;3789;47.064;15.482;2023-07-22T05:24:53;17.50;99.90
7496;DHT22;3789;47.064;15.482;2023-07-22T05:27:23;17.50;99.90
7496;DHT22;3789;47.064;15.482;2023-07-22T05:29:58;17.40;99.90
7496;DHT22;3789;47.064;15.482;2023-07-22T05:32:28;17.40;99.90
7496;DHT22;3789;47.064;15.482;2023-07-22T05:35:02;17.40;99.90
7496;DHT22;3789;47.064;15.482;2023-07-22T05:37:34;17.30;99.90
7496;DHT22;3789;47.064;15.482;2023-07-22T05:40:04;17.30;99.90
7496;DHT22;3789;47.064;15.482;2023-07-22T05:42:37;17.40;99.90
7496;DHT22;3789;47.064;15.482;2023-07-22T05:45:09;17.40;99.90
7496;DHT22;3789;47.064;15.482;2023-07-22T05:47:42;17.30;99.90
7496;DHT22;3789;47.064;15.482;2023-07-22T05:50:13;17.30;99.90
7496;DHT22;3789;47.064;15.482;2023-07-22T05:52:48;17.20;99.90
7496;DHT22;3789;47.064;15.482;2023-07-22T05:55:20;17.20;99.90
7496;DHT22;3789;47.064;15.482;2023-07-22T05:57:55;17.30;99.90
7496;DHT22;3789;47.064;15.482;2023-07-22T06:00:33;17.30;99.90
7496;DHT22;3789;47.064;15.482;2023-07-22T06:03:04;17.40;99.90
7496;DHT22;3789;47.064;15.482;2023-07-22T06:05:34;17.40;99.90
7496;DHT22;3789;47.064;15.482;2023-07-22T06:08:11;17.40;99.90
7496;DHT22;3789;47.064;15.482;2023-07-22T06:10:52;17.30;99.90
7496;DHT22;3789;47.064;15.482;2023-07-22T06:13:22;17.30;99.90
7496;DHT22;3789;47.064;15.482;2023-07-22T06:15:51;17.40;99.90
7496;DHT22;3789;47.064;15.482;2023-07-22T06:18:24;17.40;99.90
7496;DHT22;3789;47.064;15.482;2023-07-22T06:20:53;17.50;99.90
7496;DHT22;3789;47.064;15.482;2023-07-22T06:23:33;17.50;99.90
7496;DHT22;3789;47.064;15.482;2023-07-22T06:26:01;17.60;99.90
7496;DHT22;3789;47.064;15.482;2023-07-22T06:28:30;17.80;99.90
7496;DHT22;3789;47.064;15.482;2023-07-22T06:31:07;17.80;99.90
7496;DHT22;3789;47.064;15.482;2023-07-22T06:33:39;17.70;99.90
7496;DHT22;3789;47.064;15.482;2023-07-22T06:36:06;17.80;99.90
7496;DHT22;3789;47.064;15.482;2023-07-22T06:38:35;17.80;99.90
7496;DHT22;3789;47.064;15.482;2023-07-22T06:41:04;17.70;99.90
7496;DHT22;3789;47.064;15.482;2023-07-22T06:43:44;17.60;99.90
7496;DHT22;3789;47.064;15.482;2023-07-22T06:46:17;17.50;99.90
7496;DHT22;3789;47.064;15.482;2023-07-22T06:48:52;17.70;99.90
7496;DHT22;3789;47.064;15.482;2023-07-22T06:51:44;17.80;99.90
7496;DHT22;3789;47.064;15.482;2023-07-22T06:54:12;17.90;99.90
7496;DHT22;3789;47.064;15.482;2023-07-22T06:56:45;17.90;99.90
7496;DHT22;3789;47.064;15.482;2023-07-22T06:59:14;18.00;99.90
7496;DHT22;3789;47.064;15.482;2023-07-22T07:01:58;18.00;99.90
7496;DHT22;3789;47.064;15.482;2023-07-22T07:04:31;18.00;99.90
7496;DHT22;3789;47.064;15.482;2023-07-22T07:07:02;18.10;99.90
7496;DHT22;3789;47.064;15.482;2023-07-22T07:09:32;18.00;99.90
7496;DHT22;3789;47.064;15.482;2023-07-22T07:12:03;18.10;99.90
7496;DHT22;3789;47.064;15.482;2023-07-22T07:14:43;18.30;99.90
7496;DHT22;3789;47.064;15.482;2023-07-22T07:17:19;18.40;99.90
7496;DHT22;3789;47.064;15.482;2023-07-22T07:19:55;18.50;99.90
7496;DHT22;3789;47.064;15.482;2023-07-22T07:22:26;18.40;99.90
7496;DHT22;3789;47.064;15.482;2023-07-22T07:25:04;18.20;99.90
7496;DHT22;3789;47.064;15.482;2023-07-22T07:27:34;18.30;99.90
7496;DHT22;3789;47.064;15.482;2023-07-22T07:30:10;18.50;99.90
7496;DHT22;3789;47.064;15.482;2023-07-22T07:32:39;18.60;99.90
7496;DHT22;3789;47.064;15.482;2023-07-22T07:35:08;18.80;99.90
7496;DHT22;3789;47.064;15.482;2023-07-22T07:37:36;18.90;99.90
7496;DHT22;3789;47.064;15.482;2023-07-22T07:40:10;19.20;99.90
7496;DHT22;3789;47.064;15.482;2023-07-22T07:42:39;19.70;99.90
7496;DHT22;3789;47.064;15.482;2023-07-22T07:45:09;20.10;99.90
7496;DHT22;3789;47.064;15.482;2023-07-22T07:47:50;20.20;99.90
7496;DHT22;3789;47.064;15.482;2023-07-22T07:50:21;20.30;99.90
7496;DHT22;3789;47.064;15.482;2023-07-22T07:52:48;20.50;99.90
7496;DHT22;3789;47.064;15.482;2023-07-22T07:55:20;20.80;99.90
7496;DHT22;3789;47.064;15.482;2023-07-22T07:57:49;21.00;99.90
7496;DHT22;3789;47.064;15.482;2023-07-22T08:00:22;21.20;99.90
7496;DHT22;3789;47.064;15.482;2023-07-22T08:02:52;21.40;99.90
7496;DHT22;3789;47.064;15.482;2023-07-22T08:05:23;21.60;99.90
7496;DHT22;3789;47.064;15.482;2023-07-22T08:08:04;21.70;99.90
7496;DHT22;3789;47.064;15.482;2023-07-22T08:10:34;22.10;99.90
7496;DHT22;3789;47.064;15.482;2023-07-22T08:13:04;22.20;99.90
7496;DHT22;3789;47.064;15.482;2023-07-22T08:15:38;22.30;99.90
7496;DHT22;3789;47.064;15.482;2023-07-22T08:18:07;22.50;99.90
7496;DHT22;3789;47.064;15.482;2023-07-22T08:20:36;22.50;99.90
7496;DHT22;3789;47.064;15.482;2023-07-22T08:23:06;22.80;99.90
7496;DHT22;3789;47.064;15.482;2023-07-22T08:25:36;23.00;99.90
7496;DHT22;3789;47.064;15.482;2023-07-22T08:28:05;23.10;99.90
7496;DHT22;3789;47.064;15.482;2023-07-22T08:30:38;23.40;99.90
7496;DHT22;3789;47.064;15.482;2023-07-22T08:33:13;23.50;99.90
7496;DHT22;3789;47.064;15.482;2023-07-22T08:36:11;23.40;99.90
7496;DHT22;3789;47.064;15.482;2023-07-22T08:38:41;23.40;99.90
7496;DHT22;3789;47.064;15.482;2023-07-22T08:41:16;23.70;99.90
7496;DHT22;3789;47.064;15.482;2023-07-22T08:43:46;23.40;99.90
7496;DHT22;3789;47.064;15.482;2023-07-22T08:46:18;23.40;99.90
7496;DHT22;3789;47.064;15.482;2023-07-22T08:48:57;23.50;99.90
7496;DHT22;3789;47.064;15.482;2023-07-22T08:51:30;23.80;99.90
7496;DHT22;3789;47.064;15.482;2023-07-22T08:54:02;24.10;99.90
7496;DHT22;3789;47.064;15.482;2023-07-22T08:56:39;23.70;99.90
7496;DHT22;3789;47.064;15.482;2023-07-22T08:59:10;23.40;99.90
7496;DHT22;3789;47.064;15.482;2023-07-22T09:01:48;23.50;99.90
7496;DHT22;3789;47.064;15.482;2023-07-22T09:04:26;23.80;99.90
7496;DHT22;3789;47.064;15.482;2023-07-22T09:06:55;24.10;99.90
7496;DHT22;3789;47.064;15.482;2023-07-22T09:09:25;24.40;99.90
7496;DHT22;3789;47.064;15.482;2023-07-22T09:12:02;24.00;99.90
7496;DHT22;3789;47.064;15.482;2023-07-22T09:14:32;24.00;99.90
7496;DHT22;3789;47.064;15.482;2023-07-22T09:17:06;23.90;99.90
7496;DHT22;3789;47.064;15.482;2023-07-22T09:19:43;24.10;99.90
7496;DHT22;3789;47.064;15.482;2023-07-22T09:22:12;23.50;99.90
7496;DHT22;3789;47.064;15.482;2023-07-22T09:24:45;23.50;99.90
7496;DHT22;3789;47.064;15.482;2023-07-22T09:27:14;23.70;99.90
7496;DHT22;3789;47.064;15.482;2023-07-22T09:29:45;23.90;99.90
7496;DHT22;3789;47.064;15.482;2023-07-22T09:32:35;24.10;99.90
7496;DHT22;3789;47.064;15.482;2023-07-22T09:35:09;24.10;99.90
7496;DHT22;3789;47.064;15.482;2023-07-22T09:37:38;24.30;99.90
7496;DHT22;3789;47.064;15.482;2023-07-22T09:40:23;24.40;99.90
7496;DHT22;3789;47.064;15.482;2023-07-22T09:42:57;24.60;99.90
7496;DHT22;3789;47.064;15.482;2023-07-22T09:45:31;24.70;99.90
7496;DHT22;3789;47.064;15.482;2023-07-22T09:48:01;24.60;99.90
7496;DHT22;3789;47.064;15.482;2023-07-22T09:50:33;24.50;99.90
7496;DHT22;3789;47.064;15.482;2023-07-22T09:53:01;24.40;99.90
7496;DHT22;3789;47.064;15.482;2023-07-22T09:55:35;24.40;99.90
7496;DHT22;3789;47.064;15.482;2023-07-22T09:58:12;24.30;99.90
7496;DHT22;3789;47.064;15.482;2023-07-22T10:00:57;24.10;99.90
7496;DHT22;3789;47.064;15.482;2023-07-22T10:03:29;23.90;99.90
7496;DHT22;3789;47.064;15.482;2023-07-22T10:06:09;24.00;99.90
7496;DHT22;3789;47.064;15.482;2023-07-22T10:08:50;24.20;99.90
7496;DHT22;3789;47.064;15.482;2023-07-22T10:11:38;24.60;99.90
7496;DHT22;3789;47.064;15.482;2023-07-22T10:14:12;24.90;99.90
7496;DHT22;3789;47.064;15.482;2023-07-22T10:16:46;25.20;99.90
7496;DHT22;3789;47.064;15.482;2023-07-22T10:19:22;25.30;99.90
7496;DHT22;3789;47.064;15.482;2023-07-22T10:22:02;25.40;99.90
7496;DHT22;3789;47.064;15.482;2023-07-22T10:24:39;25.10;99.90
7496;DHT22;3789;47.064;15.482;2023-07-22T10:27:13;24.60;99.90
7496;DHT22;3789;47.064;15.482;2023-07-22T10:29:42;24.60;99.90
7496;DHT22;3789;47.064;15.482;2023-07-22T10:32:14;24.80;99.90
7496;DHT22;3789;47.064;15.482;2023-07-22T10:34:46;24.90;99.90
7496;DHT22;3789;47.064;15.482;2023-07-22T10:37:19;24.70;99.90
7496;DHT22;3789;47.064;15.482;2023-07-22T10:39:52;24.80;99.90
7496;DHT22;3789;47.064;15.482;2023-07-22T10:42:33;24.90;99.90
7496;DHT22;3789;47.064;15.482;2023-07-22T10:45:26;25.00;99.90
7496;DHT22;3789;47.064;15.482;2023-07-22T10:48:05;25.00;99.90
7496;DHT22;3789;47.064;15.482;2023-07-22T10:50:48;25.00;99.90
7496;DHT22;3789;47.064;15.482;2023-07-22T10:53:29;25.10;99.90
7496;DHT22;3789;47.064;15.482;2023-07-22T10:56:18;24.80;99.90
7496;DHT22;3789;47.064;15.482;2023-07-22T10:59:02;24.50;99.90
7496;DHT22;3789;47.064;15.482;2023-07-22T11:01:47;24.70;99.90
7496;DHT22;3789;47.064;15.482;2023-07-22T11:04:28;25.00;99.90
7496;DHT22;3789;47.064;15.482;2023-07-22T11:07:44;25.10;99.90
7496;DHT22;3789;47.064;15.482;2023-07-22T11:10:19;25.30;99.90
7496;DHT22;3789;47.064;15.482;2023-07-22T11:13:00;25.30;99.90
7496;DHT22;3789;47.064;15.482;2023-07-22T11:15:34;25.30;99.90
7496;DHT22;3789;47.064;15.482;2023-07-22T11:18:02;24.70;99.90
7496;DHT22;3789;47.064;15.482;2023-07-22T11:20:35;23.90;99.90
7496;DHT22;3789;47.064;15.482;2023-07-22T11:23:04;24.10;99.90
7496;DHT22;3789;47.064;15.482;2023-07-22T11:25:38;24.40;99.90
7496;DHT22;3789;47.064;15.482;2023-07-22T11:28:09;24.60;99.90
7496;DHT22;3789;47.064;15.482;2023-07-22T11:30:41;24.80;99.90
7496;DHT22;3789;47.064;15.482;2023-07-22T11:33:09;25.10;99.90
7496;DHT22;3789;47.064;15.482;2023-07-22T11:35:43;24.80;99.90
7496;DHT22;3789;47.064;15.482;2023-07-22T11:38:16;24.90;99.90
7496;DHT22;3789;47.064;15.482;2023-07-22T11:40:46;24.90;99.90
7496;DHT22;3789;47.064;15.482;2023-07-22T11:43:24;25.10;99.90
7496;DHT22;3789;47.064;15.482;2023-07-22T11:45:56;24.60;99.90
7496;DHT22;3789;47.064;15.482;2023-07-22T11:48:35;24.60;99.90
7496;DHT22;3789;47.064;15.482;2023-07-22T11:51:03;24.60;99.90
7496;DHT22;3789;47.064;15.482;2023-07-22T11:53:38;24.40;99.90
7496;DHT22;3789;47.064;15.482;2023-07-22T11:56:07;24.40;99.90
7496;DHT22;3789;47.064;15.482;2023-07-22T11:58:41;24.20;99.90
7496;DHT22;3789;47.064;15.482;2023-07-22T12:01:16;24.40;99.90
7496;DHT22;3789;47.064;15.482;2023-07-22T12:04:00;24.40;99.90
7496;DHT22;3789;47.064;15.482;2023-07-22T12:06:33;24.50;99.90
7496;DHT22;3789;47.064;15.482;2023-07-22T12:09:11;24.50;99.90
7496;DHT22;3789;47.064;15.482;2023-07-22T12:11:58;24.30;99.90
7496;DHT22;3789;47.064;15.482;2023-07-22T12:14:35;23.80;99.90
7496;DHT22;3789;47.064;15.482;2023-07-22T12:17:13;24.00;99.90
7496;DHT22;3789;47.064;15.482;2023-07-22T12:19:53;24.30;99.90
7496;DHT22;3789;47.064;15.482;2023-07-22T12:22:25;24.50;99.90
7496;DHT22;3789;47.064;15.482;2023-07-22T12:24:56;24.20;99.90
7496;DHT22;3789;47.064;15.482;2023-07-22T12:27:24;24.20;99.90
7496;DHT22;3789;47.064;15.482;2023-07-22T12:29:53;24.00;99.90
7496;DHT22;3789;47.064;15.482;2023-07-22T12:32:26;23.80;99.90
7496;DHT22;3789;47.064;15.482;2023-07-22T12:35:06;23.80;99.90
7496;DHT22;3789;47.064;15.482;2023-07-22T12:37:35;23.50;99.90
7496;DHT22;3789;47.064;15.482;2023-07-22T12:40:05;23.40;99.90
7496;DHT22;3789;47.064;15.482;2023-07-22T12:42:39;23.50;99.90
7496;DHT22;3789;47.064;15.482;2023-07-22T12:45:10;23.40;99.90
7496;DHT22;3789;47.064;15.482;2023-07-22T12:47:44;23.40;99.90
7496;DHT22;3789;47.064;15.482;2023-07-22T12:50:23;23.40;99.90
7496;DHT22;3789;47.064;15.482;2023-07-22T12:53:04;23.60;99.90
7496;DHT22;3789;47.064;15.482;2023-07-22T12:55:32;23.90;99.90
7496;DHT22;3789;47.064;15.482;2023-07-22T12:58:03;24.20;99.90
7496;DHT22;3789;47.064;15.482;2023-07-22T13:00:46;24.30;99.90
7496;DHT22;3789;47.064;15.482;2023-07-22T13:03:19;24.20;99.90
7496;DHT22;3789;47.064;15.482;2023-07-22T13:05:52;24.10;99.90
7496;DHT22;3789;47.064;15.482;2023-07-22T13:08:23;24.30;99.90
7496;DHT22;3789;47.064;15.482;2023-07-22T13:10:52;24.20;99.90
7496;DHT22;3789;47.064;15.482;2023-07-22T13:13:24;24.20;99.90
7496;DHT22;3789;47.064;15.482;2023-07-22T13:15:55;24.10;99.90
7496;DHT22;3789;47.064;15.482;2023-07-22T13:18:29;23.80;99.90
7496;DHT22;3789;47.064;15.482;2023-07-22T13:20:57;23.40;99.90
7496;DHT22;3789;47.064;15.482;2023-07-22T13:23:28;23.10;99.90
7496;DHT22;3789;47.064;15.482;2023-07-22T13:25:59;22.80;99.90
7496;DHT22;3789;47.064;15.482;2023-07-22T13:28:41;22.90;99.90
7496;DHT22;3789;47.064;15.482;2023-07-22T13:31:09;22.90;99.90
7496;DHT22;3789;47.064;15.482;2023-07-22T13:33:44;23.00;99.90
7496;DHT22;3789;47.064;15.482;2023-07-22T13:36:16;23.10;99.90
7496;DHT22;3789;47.064;15.482;2023-07-22T13:38:43;23.20;99.90
7496;DHT22;3789;47.064;15.482;2023-07-22T13:41:22;23.40;99.90
7496;DHT22;3789;47.064;15.482;2023-07-22T13:43:53;23.60;99.90
7496;DHT22;3789;47.064;15.482;2023-07-22T13:46:30;23.50;99.90
7496;DHT22;3789;47.064;15.482;2023-07-22T13:49:02;23.50;99.90
7496;DHT22;3789;47.064;15.482;2023-07-22T13:51:31;23.60;99.90
7496;DHT22;3789;47.064;15.482;2023-07-22T13:54:09;23.70;99.90
7496;DHT22;3789;47.064;15.482;2023-07-22T13:56:42;23.60;99.90
7496;DHT22;3789;47.064;15.482;2023-07-22T13:59:12;23.50;99.90
7496;DHT22;3789;47.064;15.482;2023-07-22T14:01:42;23.40;99.90
7496;DHT22;3789;47.064;15.482;2023-07-22T14:04:19;23.40;99.90
7496;DHT22;3789;47.064;15.482;2023-07-22T14:06:48;23.30;99.90
7496;DHT22;3789;47.064;15.482;2023-07-22T14:09:18;23.10;99.90
7496;DHT22;3789;47.064;15.482;2023-07-22T14:11:46;23.10;99.90
7496;DHT22;3789;47.064;15.482;2023-07-22T14:14:44;23.10;99.90
7496;DHT22;3789;47.064;15.482;2023-07-22T14:17:26;23.20;99.90
7496;DHT22;3789;47.064;15.482;2023-07-22T14:19:54;23.10;99.90
7496;DHT22;3789;47.064;15.482;2023-07-22T14:22:22;22.90;99.90
7496;DHT22;3789;47.064;15.482;2023-07-22T14:24:57;22.70;99.90
7496;DHT22;3789;47.064;15.482;2023-07-22T14:27:26;22.60;99.90
7496;DHT22;3789;47.064;15.482;2023-07-22T14:30:04;22.70;99.90
7496;DHT22;3789;47.064;15.482;2023-07-22T14:32:37;22.70;99.90
7496;DHT22;3789;47.064;15.482;2023-07-22T14:35:10;22.70;99.90
7496;DHT22;3789;47.064;15.482;2023-07-22T14:37:38;22.80;99.90
7496;DHT22;3789;47.064;15.482;2023-07-22T14:40:08;22.90;99.90
7496;DHT22;3789;47.064;15.482;2023-07-22T14:42:46;22.90;99.90
7496;DHT22;3789;47.064;15.482;2023-07-22T14:45:16;22.80;99.90
7496;DHT22;3789;47.064;15.482;2023-07-22T14:47:48;22.80;99.90
7496;DHT22;3789;47.064;15.482;2023-07-22T14:50:20;22.70;99.90
7496;DHT22;3789;47.064;15.482;2023-07-22T14:52:51;22.40;99.90
7496;DHT22;3789;47.064;15.482;2023-07-22T14:55:20;22.40;99.90
7496;DHT22;3789;47.064;15.482;2023-07-22T14:57:49;22.30;99.90
7496;DHT22;3789;47.064;15.482;2023-07-22T15:00:27;22.10;99.90
7496;DHT22;3789;47.064;15.482;2023-07-22T15:02:56;22.00;99.90
7496;DHT22;3789;47.064;15.482;2023-07-22T15:05:26;21.90;99.90
7496;DHT22;3789;47.064;15.482;2023-07-22T15:07:57;21.80;99.90
7496;DHT22;3789;47.064;15.482;2023-07-22T15:10:31;21.60;99.90
7496;DHT22;3789;47.064;15.482;2023-07-22T15:13:00;21.50;99.90
7496;DHT22;3789;47.064;15.482;2023-07-22T15:15:30;21.50;99.90
7496;DHT22;3789;47.064;15.482;2023-07-22T15:17:58;21.50;99.90
7496;DHT22;3789;47.064;15.482;2023-07-22T15:20:30;21.50;99.90
7496;DHT22;3789;47.064;15.482;2023-07-22T15:22:58;21.30;99.90
7496;DHT22;3789;47.064;15.482;2023-07-22T15:25:41;21.00;99.90
7496;DHT22;3789;47.064;15.482;2023-07-22T15:28:21;20.40;99.90
7496;DHT22;3789;47.064;15.482;2023-07-22T15:30:59;20.00;99.90
7496;DHT22;3789;47.064;15.482;2023-07-22T15:33:28;19.80;99.90
7496;DHT22;3789;47.064;15.482;2023-07-22T15:35:59;19.00;99.90
7496;DHT22;3789;47.064;15.482;2023-07-22T15:38:26;18.70;99.90
7496;DHT22;3789;47.064;15.482;2023-07-22T15:40:58;18.20;99.90
7496;DHT22;3789;47.064;15.482;2023-07-22T15:46:16;18.10;99.90
7496;DHT22;3789;47.064;15.482;2023-07-22T15:48:47;17.90;99.90
7496;DHT22;3789;47.064;15.482;2023-07-22T15:51:16;17.70;99.90
7496;DHT22;3789;47.064;15.482;2023-07-22T15:53:52;17.50;99.90
7496;DHT22;3789;47.064;15.482;2023-07-22T15:56:20;17.50;99.90
7496;DHT22;3789;47.064;15.482;2023-07-22T15:58:49;17.80;99.90
7496;DHT22;3789;47.064;15.482;2023-07-22T16:01:19;18.30;99.90
7496;DHT22;3789;47.064;15.482;2023-07-22T16:03:54;18.90;99.90
7496;DHT22;3789;47.064;15.482;2023-07-22T16:06:26;18.60;99.90
7496;DHT22;3789;47.064;15.482;2023-07-22T16:09:05;18.30;99.90
7496;DHT22;3789;47.064;15.482;2023-07-22T16:11:38;18.40;99.90
7496;DHT22;3789;47.064;15.482;2023-07-22T16:14:07;18.20;99.90
7496;DHT22;3789;47.064;15.482;2023-07-22T16:16:42;18.30;99.90
7496;DHT22;3789;47.064;15.482;2023-07-22T16:19:10;18.60;99.90
7496;DHT22;3789;47.064;15.482;2023-07-22T16:21:39;18.80;99.90
7496;DHT22;3789;47.064;15.482;2023-07-22T16:24:10;19.00;99.90
7496;DHT22;3789;47.064;15.482;2023-07-22T16:26:47;19.10;99.90
7496;DHT22;3789;47.064;15.482;2023-07-22T16:29:23;19.20;99.90